Terminal Aerodrome Forecast
Issued by NWS

Home | Current Version | Previous Version | Graphics & Text | Print | Product List | Glossary On
Versions: 1 2 3 4 5 6 7 8 9 10 11 12 13 14 15 16 17 18 19
000
FTUS43 KFGF 290701 AAB
TAFBJI
TAF AMD
KBJI 290701Z 2907/3006 10011KT P6SM SCT013 BKN110
      TEMPO 2907/2909 5SM -TSRA SCT013 BKN060CB
     FM290900 18005KT P6SM VCTS BKN080CB
     FM291000 VRB06KT P6SM BKN080
     FM291800 27009KT P6SM BKN200
     FM292000 30011KT P6SM SCT200=

USA.gov is the U.S. government's official web portal to all federal, state and local government web resources and services.